createdAt,value
2018-08-10T00:00:42.748Z,33.56
2018-08-10T00:03:08.705Z,33.92
2018-08-10T00:05:34.636Z,33.67
2018-08-10T00:08:00.571Z,33.87
2018-08-10T00:10:26.518Z,33.96
2018-08-10T00:12:52.464Z,33.24
2018-08-10T00:15:18.403Z,32.90
2018-08-10T00:17:44.337Z,33.44
2018-08-10T00:20:10.299Z,32.54
2018-08-10T00:22:36.267Z,32.28
2018-08-10T00:25:02.211Z,33.64
2018-08-10T00:27:28.184Z,32.76
2018-08-10T00:29:54.168Z,33.17
2018-08-10T00:32:20.102Z,32.53
2018-08-10T00:34:46.041Z,32.84
2018-08-10T00:37:12.029Z,31.99
2018-08-10T00:39:37.940Z,31.82
2018-08-10T00:42:03.884Z,32.82
2018-08-10T00:44:29.808Z,31.67
2018-08-10T00:46:55.760Z,32.86
2018-08-10T00:49:21.691Z,32.52
2018-08-10T00:51:47.611Z,32.59
2018-08-10T00:54:13.559Z,33.45
2018-08-10T00:56:39.510Z,32.59
2018-08-10T00:59:36.761Z,33.75
2018-08-10T01:02:02.756Z,32.53
2018-08-10T01:04:28.712Z,32.82
2018-08-10T01:06:54.668Z,33.06
2018-08-10T01:09:20.609Z,33.02
2018-08-10T01:11:46.624Z,33.33
2018-08-10T01:14:12.557Z,32.75
2018-08-10T01:16:38.494Z,33.20
2018-08-10T01:19:04.536Z,33.11
2018-08-10T01:21:30.411Z,32.78
2018-08-10T01:23:56.351Z,33.14
2018-08-10T01:26:22.294Z,33.69
2018-08-10T01:28:48.386Z,32.92
2018-08-10T01:31:14.200Z,32.99
2018-08-10T01:33:40.162Z,32.79
2018-08-10T01:36:06.134Z,33.16
2018-08-10T01:38:32.090Z,33.40
2018-08-10T01:40:58.027Z,33.53
2018-08-10T01:43:23.974Z,33.56
2018-08-10T01:45:49.923Z,33.70
2018-08-10T01:48:15.876Z,33.68
2018-08-10T01:50:41.820Z,33.28
2018-08-10T01:53:07.771Z,33.97
2018-08-10T01:55:33.731Z,34.06
2018-08-10T01:57:59.705Z,33.98
2018-08-10T02:00:25.632Z,34.18
2018-08-10T02:02:51.596Z,34.67
2018-08-10T02:05:17.556Z,33.61
2018-08-10T02:07:43.509Z,33.94
2018-08-10T02:10:09.441Z,33.30
2018-08-10T02:12:35.364Z,33.87
2018-08-10T02:15:01.308Z,33.75
2018-08-10T02:17:27.259Z,33.82
2018-08-10T02:19:53.195Z,34.35
2018-08-10T02:22:19.139Z,33.87
2018-08-10T02:24:45.179Z,33.70
2018-08-10T02:27:11.085Z,33.92
2018-08-10T02:29:37.039Z,34.47
2018-08-10T02:32:02.984Z,34.65
2018-08-10T02:34:28.930Z,34.49
2018-08-10T02:36:54.873Z,34.21
2018-08-10T02:39:20.817Z,34.33
2018-08-10T02:41:46.763Z,34.77
2018-08-10T02:44:12.704Z,35.25
2018-08-10T02:46:38.646Z,35.50
2018-08-10T02:49:04.622Z,35.38
2018-08-10T02:51:30.563Z,35.28
2018-08-10T02:53:56.539Z,35.32
2018-08-10T02:56:22.501Z,34.67
2018-08-10T02:58:48.462Z,35.22
2018-08-10T03:01:14.392Z,35.21
2018-08-10T03:03:40.364Z,34.65
2018-08-10T03:06:06.350Z,34.57
2018-08-10T03:08:32.297Z,34.19
2018-08-10T03:10:58.419Z,35.01
2018-08-10T03:13:24.376Z,35.01
2018-08-10T03:15:50.336Z,34.40
2018-08-10T03:18:16.272Z,35.00
2018-08-10T03:20:42.278Z,35.03
2018-08-10T03:23:08.287Z,34.46
2018-08-10T03:25:34.237Z,34.76
2018-08-10T03:28:00.258Z,35.69
2018-08-10T03:30:26.234Z,34.58
2018-08-10T03:32:52.219Z,35.07
2018-08-10T03:35:18.175Z,35.02
2018-08-10T03:37:44.164Z,35.10
2018-08-10T03:40:10.164Z,34.88
2018-08-10T03:42:36.142Z,34.70
2018-08-10T03:45:02.093Z,35.74
2018-08-10T03:47:28.075Z,34.46
2018-08-10T03:49:54.039Z,35.30
2018-08-10T03:52:20.009Z,34.99
2018-08-10T03:54:45.997Z,34.50
2018-08-10T03:57:11.933Z,34.62
2018-08-10T03:59:38.315Z,35.15
2018-08-10T04:02:04.265Z,35.54
2018-08-10T04:04:30.232Z,35.38
2018-08-10T04:06:56.194Z,34.47
2018-08-10T04:09:22.184Z,34.67
2018-08-10T04:11:48.134Z,35.17
2018-08-10T04:14:14.125Z,36.04
2018-08-10T04:16:40.079Z,35.30
2018-08-10T04:19:06.056Z,35.68
2018-08-10T04:21:32.123Z,35.51
2018-08-10T04:23:58.078Z,35.86
2018-08-10T04:26:24.166Z,36.67
2018-08-10T04:28:50.148Z,35.55
2018-08-10T04:31:16.089Z,35.58
2018-08-10T04:33:42.020Z,34.96
2018-08-10T04:36:08.065Z,34.92
2018-08-10T04:38:34.065Z,35.01
2018-08-10T04:41:00.020Z,34.89
2018-08-10T04:43:25.968Z,34.99
2018-08-10T04:45:51.992Z,34.25
2018-08-10T04:48:17.993Z,34.68
2018-08-10T04:50:43.921Z,34.79
2018-08-10T04:53:09.875Z,34.05
2018-08-10T04:55:35.945Z,34.05
2018-08-10T04:58:01.802Z,33.82
2018-08-10T05:00:27.754Z,34.06
2018-08-10T05:02:53.687Z,33.48
2018-08-10T05:05:19.669Z,33.99
2018-08-10T05:07:45.620Z,33.27
2018-08-10T05:10:11.573Z,34.08
2018-08-10T05:12:37.587Z,33.93
2018-08-10T05:15:03.524Z,32.67
2018-08-10T05:17:30.422Z,33.40
2018-08-10T05:19:56.393Z,33.34
2018-08-10T05:22:22.339Z,33.56
2018-08-10T05:24:48.319Z,33.40
2018-08-10T05:27:14.276Z,33.44
2018-08-10T05:29:43.130Z,33.52
2018-08-10T05:32:09.078Z,33.43
2018-08-10T05:34:35.011Z,34.19
2018-08-10T05:37:00.974Z,33.75
2018-08-10T05:39:26.915Z,32.55
2018-08-10T05:41:52.857Z,32.75
2018-08-10T05:44:18.794Z,33.48
2018-08-10T05:46:44.788Z,32.54
2018-08-10T05:49:10.712Z,33.64
2018-08-10T05:51:36.675Z,32.83
2018-08-10T05:54:02.631Z,33.00
2018-08-10T05:56:28.578Z,33.81
2018-08-10T05:58:54.518Z,33.68
2018-08-10T06:01:20.503Z,34.08
2018-08-10T06:03:46.493Z,34.27
2018-08-10T06:06:12.420Z,34.18
2018-08-10T06:08:38.356Z,33.83
2018-08-10T06:11:04.335Z,33.32
2018-08-10T06:13:30.268Z,33.75
2018-08-10T06:15:56.246Z,33.35
2018-08-10T06:18:22.206Z,32.54
2018-08-10T06:20:48.152Z,32.63
2018-08-10T06:23:14.091Z,32.14
2018-08-10T06:25:41.831Z,32.60
2018-08-10T06:28:07.837Z,32.03
2018-08-10T06:30:33.815Z,32.65
2018-08-10T06:32:59.836Z,32.79
2018-08-10T06:35:25.798Z,32.45
2018-08-10T06:37:51.787Z,32.48
2018-08-10T06:40:17.737Z,32.30
2018-08-10T06:42:43.707Z,32.57
2018-08-10T06:45:09.712Z,32.24
2018-08-10T06:47:35.642Z,32.49
2018-08-10T06:50:01.654Z,32.63
2018-08-10T06:52:27.613Z,33.76
2018-08-10T06:54:53.548Z,32.98
2018-08-10T06:57:19.507Z,32.48
2018-08-10T06:59:45.482Z,33.06
2018-08-10T07:02:11.449Z,32.74
2018-08-10T07:04:37.396Z,33.80
2018-08-10T07:07:03.393Z,33.43
2018-08-10T07:09:29.375Z,34.17
2018-08-10T07:11:55.425Z,33.35
2018-08-10T07:14:21.364Z,33.76
2018-08-10T07:16:47.374Z,34.53
2018-08-10T07:19:13.320Z,33.96
2018-08-10T07:21:39.300Z,34.85
2018-08-10T07:24:05.231Z,34.46
2018-08-10T07:26:31.195Z,34.07
2018-08-10T07:28:57.161Z,34.08
2018-08-10T07:31:23.096Z,34.02
2018-08-10T07:33:49.044Z,34.92
2018-08-10T07:36:14.996Z,34.54
2018-08-10T07:38:40.968Z,34.70
2018-08-10T07:41:06.901Z,33.84
2018-08-10T07:43:32.837Z,34.70
2018-08-10T07:45:58.787Z,34.24
2018-08-10T07:48:24.719Z,34.36
2018-08-10T07:50:50.706Z,34.22
2018-08-10T07:53:16.651Z,34.97
2018-08-10T07:55:42.617Z,34.76
2018-08-10T07:58:08.535Z,35.41
2018-08-10T08:00:34.493Z,35.03
2018-08-10T08:03:00.433Z,35.73
2018-08-10T08:05:26.397Z,35.38
2018-08-10T08:07:52.390Z,34.71
2018-08-10T08:10:18.311Z,35.10
2018-08-10T08:12:44.269Z,34.76
2018-08-10T08:15:10.209Z,35.20
2018-08-10T08:17:36.188Z,34.85
2018-08-10T08:20:02.159Z,34.98
2018-08-10T08:22:28.120Z,34.51
2018-08-10T08:24:54.068Z,34.49
2018-08-10T08:27:20.036Z,34.79
2018-08-10T08:29:45.997Z,35.66
2018-08-10T08:32:11.967Z,35.48
2018-08-10T08:34:37.940Z,35.73
2018-08-10T08:37:03.896Z,35.92
2018-08-10T08:39:29.806Z,35.63
2018-08-10T08:41:56.916Z,35.79
2018-08-10T08:44:22.900Z,36.02
2018-08-10T08:46:48.847Z,35.51
2018-08-10T08:49:14.781Z,35.04
2018-08-10T08:51:40.764Z,34.43
2018-08-10T08:54:06.810Z,35.86
2018-08-10T08:56:32.712Z,35.59
2018-08-10T08:58:58.697Z,35.61
2018-08-10T09:01:24.657Z,34.27
2018-08-10T09:03:50.653Z,33.41
2018-08-10T09:06:16.598Z,33.42
2018-08-10T09:08:42.542Z,33.80
2018-08-10T09:11:08.549Z,33.14
2018-08-10T09:13:34.487Z,33.48
2018-08-10T09:16:00.443Z,32.93
2018-08-10T09:18:26.398Z,32.85
2018-08-10T09:20:52.347Z,32.63
2018-08-10T09:23:18.360Z,32.81
2018-08-10T09:25:44.250Z,33.26
2018-08-10T09:28:10.204Z,33.03
2018-08-10T09:30:36.174Z,32.86
2018-08-10T09:33:02.128Z,33.51
2018-08-10T09:35:28.092Z,33.93
2018-08-10T09:37:54.048Z,33.90
2018-08-10T09:40:20.000Z,33.80
2018-08-10T09:42:45.999Z,33.58
2018-08-10T09:45:11.985Z,32.73
2018-08-10T09:47:37.888Z,32.00
2018-08-10T09:50:03.828Z,32.16
2018-08-10T09:52:29.781Z,32.09
2018-08-10T09:54:55.780Z,32.51
2018-08-10T09:57:21.708Z,32.94
2018-08-10T09:59:47.668Z,32.04
2018-08-10T10:02:13.597Z,32.38
2018-08-10T10:04:39.523Z,32.61
2018-08-10T10:07:05.464Z,32.31
2018-08-10T10:09:31.391Z,32.10
2018-08-10T10:11:57.356Z,32.01
2018-08-10T10:14:23.285Z,31.55
2018-08-10T10:16:49.244Z,32.06
2018-08-10T10:19:15.200Z,32.32
2018-08-10T10:21:41.164Z,31.46
2018-08-10T10:24:07.115Z,31.55
2018-08-10T10:26:33.071Z,30.56
2018-08-10T10:28:59.019Z,31.43
2018-08-10T10:31:24.986Z,31.33
2018-08-10T10:33:50.940Z,31.04
2018-08-10T10:36:16.872Z,32.15
2018-08-10T10:38:42.805Z,30.77
2018-08-10T10:41:08.743Z,31.65
2018-08-10T10:43:34.785Z,32.11
2018-08-10T10:46:00.738Z,31.65
2018-08-10T10:48:26.703Z,31.36
2018-08-10T10:50:52.676Z,31.99
2018-08-10T10:53:18.644Z,31.83
2018-08-10T10:55:44.580Z,32.57
2018-08-10T10:58:10.545Z,31.63
2018-08-10T11:00:36.502Z,31.29
2018-08-10T11:03:02.476Z,31.66
2018-08-10T11:05:28.532Z,31.62
2018-08-10T11:07:54.484Z,31.84
2018-08-10T11:10:20.827Z,31.27
2018-08-10T11:12:46.811Z,31.05
2018-08-10T11:15:12.741Z,30.87
2018-08-10T11:17:38.688Z,30.71
2018-08-10T11:20:04.643Z,30.93
2018-08-10T11:22:30.641Z,30.21
2018-08-10T11:24:56.577Z,31.00
2018-08-10T11:27:22.531Z,31.35
2018-08-10T11:29:48.463Z,31.12
2018-08-10T11:32:14.408Z,30.37
2018-08-10T11:34:40.368Z,31.14
2018-08-10T11:37:06.299Z,29.38
2018-08-10T11:39:32.248Z,31.38
2018-08-10T11:41:58.237Z,31.17
2018-08-10T11:44:24.180Z,30.79
2018-08-10T11:46:50.108Z,30.97
2018-08-10T11:49:16.050Z,30.63
2018-08-10T11:51:42.039Z,30.84
2018-08-10T11:54:08.018Z,30.72
2018-08-10T11:56:33.973Z,31.22
2018-08-10T11:58:59.925Z,30.59
2018-08-10T12:01:25.880Z,30.40
2018-08-10T12:03:51.825Z,30.91
2018-08-10T12:06:17.819Z,29.98
2018-08-10T12:08:43.766Z,30.07
2018-08-10T12:11:09.716Z,30.38
2018-08-10T12:13:35.663Z,29.77
2018-08-10T12:16:01.628Z,30.39
2018-08-10T12:18:27.582Z,29.91
2018-08-10T12:20:53.522Z,30.05
2018-08-10T12:23:19.521Z,29.98
2018-08-10T12:25:45.495Z,29.80
2018-08-10T12:28:11.454Z,30.13
2018-08-10T12:30:37.381Z,30.27
2018-08-10T12:33:03.451Z,30.11
2018-08-10T12:35:29.406Z,29.81
2018-08-10T12:37:55.351Z,29.62
2018-08-10T12:40:21.279Z,30.44
2018-08-10T12:42:47.220Z,30.13
2018-08-10T12:45:13.191Z,30.79
2018-08-10T12:47:39.121Z,29.77
2018-08-10T12:50:05.056Z,30.13
2018-08-10T12:52:30.993Z,29.81
2018-08-10T12:54:56.917Z,29.99
2018-08-10T12:57:22.853Z,28.62
2018-08-10T12:59:48.800Z,28.42
2018-08-10T13:02:14.768Z,29.08
2018-08-10T13:04:40.724Z,30.05
2018-08-10T13:07:06.676Z,29.32
2018-08-10T13:09:32.659Z,29.54
2018-08-10T13:11:58.616Z,28.92
2018-08-10T13:14:24.555Z,30.05
2018-08-10T13:16:50.501Z,29.47
2018-08-10T13:19:16.460Z,30.26
2018-08-10T13:21:42.430Z,29.81
2018-08-10T13:24:08.391Z,28.83
2018-08-10T13:26:34.356Z,28.56
2018-08-10T13:29:00.329Z,28.24
2018-08-10T13:31:26.300Z,28.95
2018-08-10T13:33:52.242Z,29.22
2018-08-10T13:36:18.187Z,29.36
2018-08-10T13:38:44.130Z,29.26
2018-08-10T13:41:10.063Z,29.44
2018-08-10T13:43:36.044Z,28.34
2018-08-10T13:46:01.967Z,29.55
2018-08-10T13:48:27.898Z,28.00
2018-08-10T13:50:53.832Z,28.90
2018-08-10T13:53:19.801Z,28.23
2018-08-10T13:55:45.723Z,28.50
2018-08-10T13:58:11.678Z,28.08
2018-08-10T14:00:37.656Z,28.49
2018-08-10T14:03:03.603Z,27.54
2018-08-10T14:05:29.549Z,26.89
2018-08-10T14:07:55.495Z,27.46
2018-08-10T14:10:21.465Z,28.58
2018-08-10T14:12:47.401Z,28.02
2018-08-10T14:15:13.361Z,28.26
2018-08-10T14:17:39.288Z,28.86
2018-08-10T14:20:05.253Z,28.52
2018-08-10T14:22:31.198Z,28.04
2018-08-10T14:24:57.164Z,27.51
2018-08-10T14:27:23.123Z,30.05
2018-08-10T14:29:49.052Z,30.14
2018-08-10T14:32:15.030Z,30.12
2018-08-10T14:34:40.966Z,31.36
2018-08-10T14:37:06.936Z,31.14
2018-08-10T14:39:32.923Z,31.36
2018-08-10T14:41:58.893Z,31.59
2018-08-10T14:44:24.944Z,31.99
2018-08-10T14:46:50.930Z,32.13
2018-08-10T14:49:16.860Z,32.33
2018-08-10T14:51:42.841Z,31.80
2018-08-10T14:54:08.777Z,32.26
2018-08-10T14:56:34.741Z,32.34
2018-08-10T14:59:00.681Z,32.31
2018-08-10T15:01:26.622Z,31.91
2018-08-10T15:03:52.580Z,32.45
2018-08-10T15:06:18.566Z,32.79
2018-08-10T15:08:44.524Z,32.36
2018-08-10T15:11:10.491Z,32.35
2018-08-10T15:13:36.451Z,32.00
2018-08-10T15:16:02.408Z,31.90
2018-08-10T15:18:28.356Z,31.92
2018-08-10T15:20:54.305Z,30.05
2018-08-10T15:23:20.255Z,30.69
2018-08-10T15:25:46.217Z,30.39
2018-08-10T15:28:12.169Z,30.87
2018-08-10T15:30:38.156Z,31.13
2018-08-10T15:33:04.108Z,31.18
2018-08-10T15:35:30.078Z,31.30
2018-08-10T15:37:56.012Z,31.76
2018-08-10T15:40:21.959Z,31.06
2018-08-10T15:42:47.927Z,31.16
2018-08-10T15:45:13.902Z,31.83
2018-08-10T15:47:39.856Z,31.10
2018-08-10T15:50:05.808Z,32.10
2018-08-10T15:52:31.753Z,30.81
2018-08-10T15:54:57.713Z,30.90
2018-08-10T15:57:23.691Z,31.26
2018-08-10T15:59:49.690Z,30.60
2018-08-10T16:02:15.793Z,31.37
2018-08-10T16:04:41.628Z,30.54
2018-08-10T16:07:07.576Z,30.69
2018-08-10T16:09:33.526Z,29.62
2018-08-10T16:11:59.475Z,30.38
2018-08-10T16:14:28.959Z,29.94
2018-08-10T16:16:54.919Z,29.79
2018-08-10T16:19:20.927Z,29.87
2018-08-10T16:21:46.899Z,30.65
2018-08-10T16:24:12.866Z,30.71
2018-08-10T16:26:38.807Z,29.84
2018-08-10T16:29:04.765Z,28.78
2018-08-10T16:31:30.741Z,30.34
2018-08-10T16:33:56.702Z,28.61
2018-08-10T16:36:26.512Z,29.27
2018-08-10T16:38:52.463Z,29.47
2018-08-10T16:41:18.416Z,32.85
2018-08-10T16:43:44.372Z,32.59
2018-08-10T16:46:10.304Z,33.04
2018-08-10T16:48:36.259Z,32.65
2018-08-10T16:51:02.226Z,33.00
2018-08-10T16:53:28.267Z,33.18
2018-08-10T16:55:54.250Z,32.51
2018-08-10T17:00:56.340Z,34.31
2018-08-10T17:03:22.325Z,35.77
2018-08-10T17:05:48.313Z,35.24
2018-08-10T17:08:14.476Z,35.81
2018-08-10T17:10:40.502Z,35.86
2018-08-10T17:13:06.494Z,34.51
2018-08-10T17:15:32.559Z,35.89
2018-08-10T17:17:58.561Z,35.20
2018-08-10T17:20:24.572Z,34.98
2018-08-10T17:22:50.592Z,34.15
2018-08-10T17:25:16.614Z,34.69
2018-08-10T17:27:42.597Z,35.99
2018-08-10T17:30:08.615Z,35.29
2018-08-10T17:32:34.603Z,36.24
2018-08-10T17:35:00.572Z,35.60
2018-08-10T17:37:26.559Z,36.17
2018-08-10T17:39:52.590Z,36.13
2018-08-10T17:42:18.548Z,35.44
2018-08-10T17:44:44.556Z,35.58
2018-08-10T17:47:10.511Z,35.06
2018-08-10T17:49:36.546Z,34.38
2018-08-10T17:52:02.570Z,34.69
2018-08-10T17:54:28.654Z,35.45
2018-08-10T17:56:54.628Z,37.93
2018-08-10T17:59:20.664Z,36.56
2018-08-10T18:01:46.677Z,36.36
2018-08-10T18:04:12.684Z,35.88
2018-08-10T18:06:38.660Z,35.68
2018-08-10T18:09:04.712Z,35.85
2018-08-10T18:11:30.677Z,35.85
2018-08-10T18:13:56.781Z,36.18
2018-08-10T18:16:22.850Z,35.96
2018-08-10T18:18:48.960Z,35.53
2018-08-10T18:21:14.971Z,35.32
2018-08-10T18:23:40.972Z,35.51
2018-08-10T18:26:07.048Z,35.89
2018-08-10T18:28:33.125Z,35.19
2018-08-10T18:30:59.239Z,35.19
2018-08-10T18:33:25.375Z,35.60
2018-08-10T18:35:51.398Z,35.03
2018-08-10T18:38:17.430Z,35.30
2018-08-10T18:40:43.438Z,35.51
2018-08-10T18:43:09.522Z,36.02
2018-08-10T18:45:35.537Z,36.55
2018-08-10T18:48:01.497Z,35.09
2018-08-10T18:50:27.641Z,35.11
2018-08-10T18:52:53.611Z,34.48
2018-08-10T18:55:19.706Z,34.51
2018-08-10T18:57:45.744Z,35.18
2018-08-10T19:00:11.731Z,35.08
2018-08-10T19:02:37.740Z,35.24
2018-08-10T19:05:03.738Z,35.24
2018-08-10T19:07:29.763Z,35.63
2018-08-10T19:09:55.709Z,35.39
2018-08-10T19:12:21.728Z,35.26
2018-08-10T19:14:47.712Z,35.64
2018-08-10T19:17:13.661Z,35.51
2018-08-10T19:19:39.625Z,35.46
2018-08-10T19:22:05.598Z,36.26
2018-08-10T19:24:31.649Z,35.93
2018-08-10T19:26:57.633Z,36.04
2018-08-10T19:29:23.663Z,36.99
2018-08-10T19:31:50.049Z,36.79
2018-08-10T19:34:16.067Z,36.39
2018-08-10T19:36:42.072Z,36.56
2018-08-10T19:39:08.026Z,36.42
2018-08-10T19:41:34.002Z,36.33
2018-08-10T19:44:00.626Z,36.11
2018-08-10T19:46:26.637Z,35.94
2018-08-10T19:48:52.609Z,34.81
2018-08-10T19:51:18.602Z,34.58
2018-08-10T19:53:44.552Z,34.94
2018-08-10T19:56:10.598Z,34.86
2018-08-10T19:58:36.520Z,34.13
2018-08-10T20:01:02.483Z,34.17
2018-08-10T20:03:28.453Z,33.59
2018-08-10T20:05:54.418Z,33.87
2018-08-10T20:08:20.406Z,33.00
2018-08-10T20:10:46.349Z,33.13
2018-08-10T20:13:12.320Z,33.62
2018-08-10T20:15:38.409Z,33.97
2018-08-10T20:18:04.316Z,34.48
2018-08-10T20:20:30.259Z,34.53
2018-08-10T20:22:56.230Z,34.34
2018-08-10T20:25:22.245Z,34.35
2018-08-10T20:27:48.186Z,35.31
2018-08-10T20:30:14.176Z,36.41
2018-08-10T20:32:40.139Z,36.91
2018-08-10T20:35:06.113Z,36.09
2018-08-10T20:37:32.107Z,36.39
2018-08-10T20:39:58.112Z,36.59
2018-08-10T20:42:24.068Z,37.16
2018-08-10T20:44:50.028Z,35.67
2018-08-10T20:47:16.000Z,37.50
2018-08-10T20:49:41.935Z,37.35
2018-08-10T20:52:08.019Z,37.04
2018-08-10T20:54:33.985Z,36.42
2018-08-10T20:57:00.049Z,36.97
2018-08-10T20:59:26.022Z,37.47
2018-08-10T21:01:52.221Z,36.79
2018-08-10T21:04:18.200Z,37.48
2018-08-10T21:06:44.147Z,37.27
2018-08-10T21:09:10.109Z,37.49
2018-08-10T21:11:36.114Z,37.51
2018-08-10T21:14:02.064Z,37.80
2018-08-10T21:16:28.015Z,37.72
2018-08-10T21:18:54.010Z,37.74
2018-08-10T21:21:19.955Z,37.42
2018-08-10T21:23:45.961Z,36.01
2018-08-10T21:26:11.916Z,36.12
2018-08-10T21:28:37.892Z,37.06
2018-08-10T21:31:03.862Z,39.20
2018-08-10T21:33:30.020Z,37.53
2018-08-10T21:35:55.955Z,38.21
2018-08-10T21:38:21.892Z,38.05
2018-08-10T21:40:47.848Z,37.65
2018-08-10T21:43:13.921Z,37.95
2018-08-10T21:45:39.826Z,36.70
2018-08-10T21:48:05.816Z,37.38
2018-08-10T21:50:31.761Z,37.21
2018-08-10T21:52:57.727Z,36.78
2018-08-10T21:55:23.653Z,36.73
2018-08-10T21:57:49.604Z,37.94
2018-08-10T22:00:15.550Z,38.39
2018-08-10T22:02:41.500Z,38.72
2018-08-10T22:05:07.429Z,38.55
2018-08-10T22:07:33.465Z,38.07
2018-08-10T22:09:59.393Z,37.11
2018-08-10T22:12:25.337Z,38.08
2018-08-10T22:14:51.294Z,37.92
2018-08-10T22:17:17.232Z,37.15
2018-08-10T22:19:43.180Z,37.95
2018-08-10T22:22:09.115Z,37.02
2018-08-10T22:24:35.070Z,38.19
2018-08-10T22:27:01.028Z,37.96
2018-08-10T22:29:26.986Z,37.98
2018-08-10T22:31:52.942Z,39.00
2018-08-10T22:34:19.054Z,38.67
2018-08-10T22:36:45.020Z,38.74
2018-08-10T22:39:10.981Z,37.75
2018-08-10T22:41:36.916Z,38.90
2018-08-10T22:44:02.860Z,38.75
2018-08-10T22:46:28.809Z,39.64
2018-08-10T22:48:54.749Z,39.21
2018-08-10T22:51:20.710Z,38.63
2018-08-10T22:53:46.675Z,39.20
2018-08-10T22:56:12.620Z,39.29
2018-08-10T22:58:38.582Z,38.21
2018-08-10T23:01:04.527Z,36.62
2018-08-10T23:03:30.475Z,37.89
2018-08-10T23:05:56.405Z,37.90
2018-08-10T23:08:22.398Z,38.52
2018-08-10T23:10:48.289Z,38.06
2018-08-10T23:13:14.232Z,38.97
2018-08-10T23:15:40.183Z,38.24
2018-08-10T23:18:06.139Z,39.64
2018-08-10T23:20:32.179Z,38.85
2018-08-10T23:22:58.024Z,38.52
2018-08-10T23:25:23.986Z,39.53
2018-08-10T23:27:49.921Z,39.74
2018-08-10T23:30:15.869Z,39.70
2018-08-10T23:32:41.795Z,39.69
2018-08-10T23:35:07.778Z,38.71
2018-08-10T23:37:33.739Z,39.12
2018-08-10T23:39:59.688Z,39.66
2018-08-10T23:42:25.656Z,38.96
2018-08-10T23:44:51.610Z,39.10
2018-08-10T23:47:17.555Z,40.06
2018-08-10T23:49:43.530Z,40.36
2018-08-10T23:52:09.474Z,41.88
2018-08-10T23:54:35.444Z,40.56
2018-08-10T23:57:01.377Z,39.73
2018-08-10T23:59:27.333Z,40.03
